Logan Cache Airport
KLGU : now visible

Airfield :











YOU CAN JOIN US ON...

 
LOGIN :

Register | Disclaimer

   EN    FR    IT 

 









Legend :    VFR   Marginal VFR   IFR   Intensive IFR   Very Intensive IFR
Visi :
Ceiling :
>= 8 km
>= 3000ft
5 to 8 km
1000 to 3000 ft
1500m to 5 km
500 to 1000 ft
800 to 1500m
200 to 500 ft
< 800m
< 200 ft
Symbols :   Thunderstorms  Fog  Heavy snow  Heavy precipitations  Wind > 20 kt






- Airport Elevation : 4457 ft


KLGU - Logan Cache

CURRENT METAR :
  • 071951Z AUTO 24007KT 10SM FEW060 17/01 A3007 RMK AO2 SLP157 T01670006

EXPIRED METARs :
  • 071851Z AUTO 00000KT 10SM CLR 16/01 A3008 RMK AO2 SLP162 T01560006
  • 071751Z AUTO VRB03KT 10SM CLR 14/03 A3009 RMK AO2 SLP170 T01390033 10144 20017 50001

TAF KLGU
Valid from the 07 at 18:00 until the 08 at 18:00 UTC


071731Z 0718/0818 21008KT P6SM FEW060
FM080300 VRB04KT P6SM FEW060



MET'MAP, your aeronautical weather chart ! - Copyright ORBIFLY December 2007 - Disclaimer

ORBIFLY MET'MAP TEAM :

Programming & Development : Alexandra Zaïnal
Concept & original design : Baudouin d'Aumeries
Assistance for programming : Marc-Olivier Méhu
Technical & hardware support : Manuel Goepfert

Contact : metmap@orbifly.com




SOURCES & CREDITS :

   NOAA       Earth
Advisory